sensor_id;sensor_type;location;lat;lon;timestamp;pressure;altitude;pressure_sealevel;temperature
13570;BMP180;6856;51.460;7.158;2022-08-07T01:12:41;101445.00;;;18.40
13570;BMP180;6856;51.460;7.158;2022-08-07T01:15:26;101435.00;;;18.40
13570;BMP180;6856;51.460;7.158;2022-08-07T01:18:26;101435.00;;;18.40
13570;BMP180;6856;51.460;7.158;2022-08-07T01:21:10;101441.00;;;18.40
13570;BMP180;6856;51.460;7.158;2022-08-07T01:23:56;101439.00;;;18.30
13570;BMP180;6856;51.460;7.158;2022-08-07T01:26:31;101437.00;;;18.30
13570;BMP180;6856;51.460;7.158;2022-08-07T01:29:10;101440.00;;;18.30
13570;BMP180;6856;51.460;7.158;2022-08-07T01:31:43;101433.00;;;18.30
13570;BMP180;6856;51.460;7.158;2022-08-07T01:34:20;101434.00;;;18.30
13570;BMP180;6856;51.460;7.158;2022-08-07T01:37:03;101402.00;;;18.30
13570;BMP180;6856;51.460;7.158;2022-08-07T01:39:40;101437.00;;;18.20
13570;BMP180;6856;51.460;7.158;2022-08-07T01:42:18;101421.00;;;18.20
13570;BMP180;6856;51.460;7.158;2022-08-07T01:45:12;101425.00;;;18.20
13570;BMP180;6856;51.460;7.158;2022-08-07T01:47:49;101426.00;;;18.20
13570;BMP180;6856;51.460;7.158;2022-08-07T01:50:48;101435.00;;;18.20
13570;BMP180;6856;51.460;7.158;2022-08-07T01:53:32;101419.00;;;18.10
13570;BMP180;6856;51.460;7.158;2022-08-07T01:56:30;101412.00;;;18.10
13570;BMP180;6856;51.460;7.158;2022-08-07T01:59:19;101421.00;;;18.10
13570;BMP180;6856;51.460;7.158;2022-08-07T02:02:08;101432.00;;;18.10
13570;BMP180;6856;51.460;7.158;2022-08-07T02:05:07;101424.00;;;18.00
13570;BMP180;6856;51.460;7.158;2022-08-07T02:08:08;101412.00;;;18.00
13570;BMP180;6856;51.460;7.158;2022-08-07T02:10:48;101408.00;;;18.00
13570;BMP180;6856;51.460;7.158;2022-08-07T02:13:32;101425.00;;;17.90
13570;BMP180;6856;51.460;7.158;2022-08-07T02:16:29;101411.00;;;17.90
13570;BMP180;6856;51.460;7.158;2022-08-07T02:19:08;101409.00;;;17.80
13570;BMP180;6856;51.460;7.158;2022-08-07T02:22:03;101415.00;;;17.80
13570;BMP180;6856;51.460;7.158;2022-08-07T02:24:42;101406.00;;;17.80
13570;BMP180;6856;51.460;7.158;2022-08-07T02:27:24;101410.00;;;17.80
13570;BMP180;6856;51.460;7.158;2022-08-07T02:30:08;101413.00;;;17.80
13570;BMP180;6856;51.460;7.158;2022-08-07T02:32:48;101405.00;;;17.70
13570;BMP180;6856;51.460;7.158;2022-08-07T02:35:41;101410.00;;;17.70
13570;BMP180;6856;51.460;7.158;2022-08-07T02:38:37;101404.00;;;17.70
13570;BMP180;6856;51.460;7.158;2022-08-07T02:41:28;101410.00;;;17.70
13570;BMP180;6856;51.460;7.158;2022-08-07T02:44:06;101404.00;;;17.60
13570;BMP180;6856;51.460;7.158;2022-08-07T02:46:42;101405.00;;;17.60
13570;BMP180;6856;51.460;7.158;2022-08-07T02:49:24;101405.00;;;17.60
13570;BMP180;6856;51.460;7.158;2022-08-07T02:52:22;101387.00;;;17.50
13570;BMP180;6856;51.460;7.158;2022-08-07T02:55:08;101393.00;;;17.50
13570;BMP180;6856;51.460;7.158;2022-08-07T02:58:06;101393.00;;;17.50
13570;BMP180;6856;51.460;7.158;2022-08-07T03:00:46;101393.00;;;17.50
13570;BMP180;6856;51.460;7.158;2022-08-07T03:03:24;101398.00;;;17.40
13570;BMP180;6856;51.460;7.158;2022-08-07T03:06:15;101388.00;;;17.40
13570;BMP180;6856;51.460;7.158;2022-08-07T03:09:07;101394.00;;;17.40
13570;BMP180;6856;51.460;7.158;2022-08-07T03:11:42;101395.00;;;17.30
13570;BMP180;6856;51.460;7.158;2022-08-07T03:14:29;101396.00;;;17.30
13570;BMP180;6856;51.460;7.158;2022-08-07T03:17:05;101393.00;;;17.30
13570;BMP180;6856;51.460;7.158;2022-08-07T03:19:40;101408.00;;;17.30
13570;BMP180;6856;51.460;7.158;2022-08-07T03:22:27;101403.00;;;17.30
13570;BMP180;6856;51.460;7.158;2022-08-07T03:25:02;101393.00;;;17.20
13570;BMP180;6856;51.460;7.158;2022-08-07T03:27:42;101398.00;;;17.20
13570;BMP180;6856;51.460;7.158;2022-08-07T03:30:31;101397.00;;;17.20
13570;BMP180;6856;51.460;7.158;2022-08-07T03:33:08;101393.00;;;17.10
13570;BMP180;6856;51.460;7.158;2022-08-07T03:35:44;101384.00;;;17.10
13570;BMP180;6856;51.460;7.158;2022-08-07T03:38:21;101393.00;;;17.10
13570;BMP180;6856;51.460;7.158;2022-08-07T03:41:01;101389.00;;;17.10
13570;BMP180;6856;51.460;7.158;2022-08-07T03:43:37;101391.00;;;17.00
13570;BMP180;6856;51.460;7.158;2022-08-07T03:46:28;101390.00;;;17.00
13570;BMP180;6856;51.460;7.158;2022-08-07T03:49:07;101378.00;;;17.00
13570;BMP180;6856;51.460;7.158;2022-08-07T03:51:42;101378.00;;;17.00
13570;BMP180;6856;51.460;7.158;2022-08-07T03:54:20;101389.00;;;16.90
13570;BMP180;6856;51.460;7.158;2022-08-07T03:57:14;101393.00;;;16.90
13570;BMP180;6856;51.460;7.158;2022-08-07T04:00:11;101380.00;;;16.90
13570;BMP180;6856;51.460;7.158;2022-08-07T04:02:46;101351.00;;;16.90
13570;BMP180;6856;51.460;7.158;2022-08-07T04:05:22;101395.00;;;16.90
13570;BMP180;6856;51.460;7.158;2022-08-07T04:08:13;101387.00;;;16.90
13570;BMP180;6856;51.460;7.158;2022-08-07T04:10:50;101402.00;;;16.90
13570;BMP180;6856;51.460;7.158;2022-08-07T04:13:45;101391.00;;;16.80
13570;BMP180;6856;51.460;7.158;2022-08-07T04:16:39;101384.00;;;16.80
13570;BMP180;6856;51.460;7.158;2022-08-07T04:19:29;101383.00;;;16.80
13570;BMP180;6856;51.460;7.158;2022-08-07T04:22:24;101381.00;;;16.80
13570;BMP180;6856;51.460;7.158;2022-08-07T04:25:01;101382.00;;;16.80
13570;BMP180;6856;51.460;7.158;2022-08-07T04:27:43;101384.00;;;16.70
13570;BMP180;6856;51.460;7.158;2022-08-07T04:30:32;101372.00;;;16.70
13570;BMP180;6856;51.460;7.158;2022-08-07T04:33:26;101386.00;;;16.70
13570;BMP180;6856;51.460;7.158;2022-08-07T04:36:01;101387.00;;;16.70
13570;BMP180;6856;51.460;7.158;2022-08-07T04:38:39;101375.00;;;16.70
13570;BMP180;6856;51.460;7.158;2022-08-07T04:41:13;101378.00;;;16.70
13570;BMP180;6856;51.460;7.158;2022-08-07T04:43:50;101380.00;;;16.60
13570;BMP180;6856;51.460;7.158;2022-08-07T04:46:54;101387.00;;;16.60
13570;BMP180;6856;51.460;7.158;2022-08-07T04:49:45;101377.00;;;16.60
13570;BMP180;6856;51.460;7.158;2022-08-07T04:52:43;101399.00;;;16.60
13570;BMP180;6856;51.460;7.158;2022-08-07T04:55:30;101397.00;;;16.60
13570;BMP180;6856;51.460;7.158;2022-08-07T04:58:36;101404.00;;;16.60
13570;BMP180;6856;51.460;7.158;2022-08-07T05:01:44;101404.00;;;16.60
13570;BMP180;6856;51.460;7.158;2022-08-07T05:04:34;101398.00;;;16.60
13570;BMP180;6856;51.460;7.158;2022-08-07T05:07:29;101409.00;;;16.70
13570;BMP180;6856;51.460;7.158;2022-08-07T05:10:25;101398.00;;;16.70
13570;BMP180;6856;51.460;7.158;2022-08-07T05:13:08;101397.00;;;16.70
13570;BMP180;6856;51.460;7.158;2022-08-07T05:16:07;101392.00;;;16.70
13570;BMP180;6856;51.460;7.158;2022-08-07T05:18:48;101400.00;;;16.70
13570;BMP180;6856;51.460;7.158;2022-08-07T05:21:29;101399.00;;;16.70
13570;BMP180;6856;51.460;7.158;2022-08-07T05:24:24;101417.00;;;16.80
13570;BMP180;6856;51.460;7.158;2022-08-07T05:27:15;101395.00;;;16.80
13570;BMP180;6856;51.460;7.158;2022-08-07T05:30:11;101413.00;;;16.80
13570;BMP180;6856;51.460;7.158;2022-08-07T05:33:02;101409.00;;;16.90
13570;BMP180;6856;51.460;7.158;2022-08-07T05:35:37;101406.00;;;16.90
13570;BMP180;6856;51.460;7.158;2022-08-07T05:38:13;101419.00;;;17.00
13570;BMP180;6856;51.460;7.158;2022-08-07T05:41:09;101411.00;;;17.00
13570;BMP180;6856;51.460;7.158;2022-08-07T05:43:52;101418.00;;;17.00
13570;BMP180;6856;51.460;7.158;2022-08-07T05:46:45;101422.00;;;17.10
13570;BMP180;6856;51.460;7.158;2022-08-07T05:49:23;101427.00;;;17.20
13570;BMP180;6856;51.460;7.158;2022-08-07T05:51:57;101378.00;;;17.20
13570;BMP180;6856;51.460;7.158;2022-08-07T05:54:34;101412.00;;;17.20
13570;BMP180;6856;51.460;7.158;2022-08-07T05:57:28;101401.00;;;17.30
13570;BMP180;6856;51.460;7.158;2022-08-07T06:00:15;101429.00;;;17.40
13570;BMP180;6856;51.460;7.158;2022-08-07T06:02:53;101421.00;;;17.40
13570;BMP180;6856;51.460;7.158;2022-08-07T06:05:32;101422.00;;;17.50
13570;BMP180;6856;51.460;7.158;2022-08-07T06:08:12;101420.00;;;17.50
13570;BMP180;6856;51.460;7.158;2022-08-07T06:11:07;101439.00;;;17.60
13570;BMP180;6856;51.460;7.158;2022-08-07T06:13:42;101423.00;;;17.70
13570;BMP180;6856;51.460;7.158;2022-08-07T06:16:38;101436.00;;;17.80
13570;BMP180;6856;51.460;7.158;2022-08-07T06:19:13;101434.00;;;17.90
13570;BMP180;6856;51.460;7.158;2022-08-07T06:21:49;101421.00;;;17.90
13570;BMP180;6856;51.460;7.158;2022-08-07T06:24:43;101428.00;;;18.00
13570;BMP180;6856;51.460;7.158;2022-08-07T06:27:32;101429.00;;;18.10
13570;BMP180;6856;51.460;7.158;2022-08-07T06:30:26;101445.00;;;18.20
13570;BMP180;6856;51.460;7.158;2022-08-07T06:33:09;101450.00;;;18.30
13570;BMP180;6856;51.460;7.158;2022-08-07T06:35:47;101438.00;;;18.40
13570;BMP180;6856;51.460;7.158;2022-08-07T06:38:42;101425.00;;;18.50
13570;BMP180;6856;51.460;7.158;2022-08-07T06:41:42;101432.00;;;18.60
13570;BMP180;6856;51.460;7.158;2022-08-07T06:44:36;101427.00;;;18.70
13570;BMP180;6856;51.460;7.158;2022-08-07T06:47:11;101438.00;;;18.80
13570;BMP180;6856;51.460;7.158;2022-08-07T06:49:48;101407.00;;;18.90
13570;BMP180;6856;51.460;7.158;2022-08-07T06:52:43;101426.00;;;19.00
13570;BMP180;6856;51.460;7.158;2022-08-07T06:55:28;101420.00;;;19.10
13570;BMP180;6856;51.460;7.158;2022-08-07T06:58:24;101436.00;;;19.30
13570;BMP180;6856;51.460;7.158;2022-08-07T07:01:01;101421.00;;;19.30
13570;BMP180;6856;51.460;7.158;2022-08-07T07:03:38;101426.00;;;19.50
13570;BMP180;6856;51.460;7.158;2022-08-07T07:06:32;101427.00;;;19.60
13570;BMP180;6856;51.460;7.158;2022-08-07T07:09:29;101376.00;;;19.70
13570;BMP180;6856;51.460;7.158;2022-08-07T07:12:21;101401.00;;;19.80
13570;BMP180;6856;51.460;7.158;2022-08-07T07:15:12;101418.00;;;19.90
13570;BMP180;6856;51.460;7.158;2022-08-07T07:18:04;101417.00;;;20.10
13570;BMP180;6856;51.460;7.158;2022-08-07T07:20:48;101421.00;;;20.20
13570;BMP180;6856;51.460;7.158;2022-08-07T07:23:25;101415.00;;;20.30
13570;BMP180;6856;51.460;7.158;2022-08-07T07:26:22;101415.00;;;20.40
13570;BMP180;6856;51.460;7.158;2022-08-07T07:29:11;101413.00;;;20.60
13570;BMP180;6856;51.460;7.158;2022-08-07T07:32:10;101423.00;;;20.70
13570;BMP180;6856;51.460;7.158;2022-08-07T07:34:56;101409.00;;;20.80
13570;BMP180;6856;51.460;7.158;2022-08-07T07:37:35;101422.00;;;21.00
13570;BMP180;6856;51.460;7.158;2022-08-07T07:40:25;101412.00;;;21.10
13570;BMP180;6856;51.460;7.158;2022-08-07T07:43:04;101424.00;;;21.30
13570;BMP180;6856;51.460;7.158;2022-08-07T07:45:51;101407.00;;;21.40
13570;BMP180;6856;51.460;7.158;2022-08-07T07:48:47;101417.00;;;21.60
13570;BMP180;6856;51.460;7.158;2022-08-07T07:51:32;101406.00;;;21.70
13570;BMP180;6856;51.460;7.158;2022-08-07T07:54:28;101402.00;;;21.90
13570;BMP180;6856;51.460;7.158;2022-08-07T07:57:08;101388.00;;;22.00
13570;BMP180;6856;51.460;7.158;2022-08-07T07:59:43;101403.00;;;22.10
13570;BMP180;6856;51.460;7.158;2022-08-07T08:02:28;101405.00;;;22.20
13570;BMP180;6856;51.460;7.158;2022-08-07T08:05:09;101408.00;;;22.40
13570;BMP180;6856;51.460;7.158;2022-08-07T08:07:48;101401.00;;;22.50
13570;BMP180;6856;51.460;7.158;2022-08-07T08:10:34;101410.00;;;22.70
13570;BMP180;6856;51.460;7.158;2022-08-07T08:13:13;101400.00;;;22.80
13570;BMP180;6856;51.460;7.158;2022-08-07T08:15:48;101406.00;;;23.00
13570;BMP180;6856;51.460;7.158;2022-08-07T08:18:34;101402.00;;;23.10
13570;BMP180;6856;51.460;7.158;2022-08-07T08:21:09;101412.00;;;23.30
13570;BMP180;6856;51.460;7.158;2022-08-07T08:24:31;101406.00;;;23.40
13570;BMP180;6856;51.460;7.158;2022-08-07T08:27:46;101409.00;;;23.60
13570;BMP180;6856;51.460;7.158;2022-08-07T08:30:37;101388.00;;;23.70
13570;BMP180;6856;51.460;7.158;2022-08-07T08:33:17;101390.00;;;23.80
13570;BMP180;6856;51.460;7.158;2022-08-07T08:35:54;101401.00;;;24.00
13570;BMP180;6856;51.460;7.158;2022-08-07T08:38:36;101397.00;;;24.10
13570;BMP180;6856;51.460;7.158;2022-08-07T08:41:18;101406.00;;;24.20
13570;BMP180;6856;51.460;7.158;2022-08-07T08:44:03;101369.00;;;24.40
13570;BMP180;6856;51.460;7.158;2022-08-07T08:46:43;101393.00;;;24.60
13570;BMP180;6856;51.460;7.158;2022-08-07T08:49:26;101382.00;;;24.70
13570;BMP180;6856;51.460;7.158;2022-08-07T08:52:25;101387.00;;;24.90
13570;BMP180;6856;51.460;7.158;2022-08-07T08:55:18;101392.00;;;25.00
13570;BMP180;6856;51.460;7.158;2022-08-07T08:58:25;101385.00;;;25.20
13570;BMP180;6856;51.460;7.158;2022-08-07T09:01:10;101376.00;;;25.30
13570;BMP180;6856;51.460;7.158;2022-08-07T09:04:07;101386.00;;;25.50
13570;BMP180;6856;51.460;7.158;2022-08-07T09:06:56;101382.00;;;25.60
13570;BMP180;6856;51.460;7.158;2022-08-07T09:09:50;101386.00;;;25.80
13570;BMP180;6856;51.460;7.158;2022-08-07T09:12:49;101390.00;;;25.90
13570;BMP180;6856;51.460;7.158;2022-08-07T09:15:36;101387.00;;;26.10
13570;BMP180;6856;51.460;7.158;2022-08-07T09:18:59;101377.00;;;26.20
13570;BMP180;6856;51.460;7.158;2022-08-07T09:21:51;101387.00;;;26.30
13570;BMP180;6856;51.460;7.158;2022-08-07T09:24:56;101382.00;;;26.40
13570;BMP180;6856;51.460;7.158;2022-08-07T09:27:56;101377.00;;;26.60
13570;BMP180;6856;51.460;7.158;2022-08-07T09:30:55;101381.00;;;26.70
13570;BMP180;6856;51.460;7.158;2022-08-07T09:34:02;101383.00;;;26.80
13570;BMP180;6856;51.460;7.158;2022-08-07T09:36:51;101375.00;;;26.90
13570;BMP180;6856;51.460;7.158;2022-08-07T09:39:48;101372.00;;;27.10
13570;BMP180;6856;51.460;7.158;2022-08-07T09:42:42;101380.00;;;27.20
13570;BMP180;6856;51.460;7.158;2022-08-07T09:45:38;101383.00;;;27.40
13570;BMP180;6856;51.460;7.158;2022-08-07T09:48:42;101384.00;;;27.50
13570;BMP180;6856;51.460;7.158;2022-08-07T09:51:53;101378.00;;;27.60
13570;BMP180;6856;51.460;7.158;2022-08-07T09:54:56;101376.00;;;27.80
13570;BMP180;6856;51.460;7.158;2022-08-07T09:58:13;101373.00;;;27.80
13570;BMP180;6856;51.460;7.158;2022-08-07T10:01:09;101370.00;;;27.90
13570;BMP180;6856;51.460;7.158;2022-08-07T10:04:27;101378.00;;;28.00
13570;BMP180;6856;51.460;7.158;2022-08-07T10:08:03;101365.00;;;28.10
13570;BMP180;6856;51.460;7.158;2022-08-07T10:10:48;101366.00;;;28.20
13570;BMP180;6856;51.460;7.158;2022-08-07T10:13:54;101356.00;;;28.30
13570;BMP180;6856;51.460;7.158;2022-08-07T10:17:05;101352.00;;;28.30
13570;BMP180;6856;51.460;7.158;2022-08-07T10:20:06;101352.00;;;28.40
13570;BMP180;6856;51.460;7.158;2022-08-07T10:23:06;101357.00;;;28.50
13570;BMP180;6856;51.460;7.158;2022-08-07T10:25:59;101343.00;;;28.60
13570;BMP180;6856;51.460;7.158;2022-08-07T10:28:53;101346.00;;;28.80
13570;BMP180;6856;51.460;7.158;2022-08-07T10:31:59;101355.00;;;28.90
13570;BMP180;6856;51.460;7.158;2022-08-07T10:35:11;101347.00;;;29.00
13570;BMP180;6856;51.460;7.158;2022-08-07T10:38:13;101344.00;;;29.10
13570;BMP180;6856;51.460;7.158;2022-08-07T10:41:13;101341.00;;;29.20
13570;BMP180;6856;51.460;7.158;2022-08-07T10:44:17;101340.00;;;29.30
13570;BMP180;6856;51.460;7.158;2022-08-07T10:47:21;101322.00;;;29.50
13570;BMP180;6856;51.460;7.158;2022-08-07T10:50:22;101334.00;;;29.60
13570;BMP180;6856;51.460;7.158;2022-08-07T10:53:08;101329.00;;;29.70
13570;BMP180;6856;51.460;7.158;2022-08-07T10:56:02;101324.00;;;29.90
13570;BMP180;6856;51.460;7.158;2022-08-07T10:59:06;101306.00;;;30.00
13570;BMP180;6856;51.460;7.158;2022-08-07T11:01:54;101319.00;;;30.10
13570;BMP180;6856;51.460;7.158;2022-08-07T11:04:58;101320.00;;;30.20
13570;BMP180;6856;51.460;7.158;2022-08-07T11:07:51;101324.00;;;30.30
13570;BMP180;6856;51.460;7.158;2022-08-07T11:10:48;101309.00;;;30.40
13570;BMP180;6856;51.460;7.158;2022-08-07T11:13:38;101312.00;;;30.40
13570;BMP180;6856;51.460;7.158;2022-08-07T11:16:41;101309.00;;;30.50
13570;BMP180;6856;51.460;7.158;2022-08-07T11:19:37;101309.00;;;30.60
13570;BMP180;6856;51.460;7.158;2022-08-07T11:22:18;101306.00;;;30.70
13570;BMP180;6856;51.460;7.158;2022-08-07T11:25:19;101298.00;;;30.70
13570;BMP180;6856;51.460;7.158;2022-08-07T11:28:11;101299.00;;;30.80
13570;BMP180;6856;51.460;7.158;2022-08-07T11:30:58;101301.00;;;30.80
13570;BMP180;6856;51.460;7.158;2022-08-07T11:33:43;101304.00;;;30.90
13570;BMP180;6856;51.460;7.158;2022-08-07T11:36:46;101287.00;;;30.90
13570;BMP180;6856;51.460;7.158;2022-08-07T11:39:43;101294.00;;;31.00
13570;BMP180;6856;51.460;7.158;2022-08-07T11:42:47;101287.00;;;31.10
13570;BMP180;6856;51.460;7.158;2022-08-07T11:45:37;101293.00;;;31.10
13570;BMP180;6856;51.460;7.158;2022-08-07T11:48:54;101281.00;;;31.20
13570;BMP180;6856;51.460;7.158;2022-08-07T11:52:12;101288.00;;;31.30
13570;BMP180;6856;51.460;7.158;2022-08-07T11:55:12;101291.00;;;31.30
13570;BMP180;6856;51.460;7.158;2022-08-07T11:58:24;101283.00;;;31.40
13570;BMP180;6856;51.460;7.158;2022-08-07T12:01:30;101283.00;;;31.40
13570;BMP180;6856;51.460;7.158;2022-08-07T12:04:44;101286.00;;;31.50
13570;BMP180;6856;51.460;7.158;2022-08-07T12:07:29;101275.00;;;31.60
13570;BMP180;6856;51.460;7.158;2022-08-07T12:10:18;101285.00;;;31.70
13570;BMP180;6856;51.460;7.158;2022-08-07T12:13:05;101272.00;;;31.80
13570;BMP180;6856;51.460;7.158;2022-08-07T12:15:53;101273.00;;;31.80
13570;BMP180;6856;51.460;7.158;2022-08-07T12:18:50;101281.00;;;31.80
13570;BMP180;6856;51.460;7.158;2022-08-07T12:21:41;101278.00;;;31.90
13570;BMP180;6856;51.460;7.158;2022-08-07T12:24:47;101285.00;;;31.90
13570;BMP180;6856;51.460;7.158;2022-08-07T12:28:12;101285.00;;;32.00
13570;BMP180;6856;51.460;7.158;2022-08-07T12:31:10;101275.00;;;32.00
13570;BMP180;6856;51.460;7.158;2022-08-07T12:33:58;101262.00;;;32.00
13570;BMP180;6856;51.460;7.158;2022-08-07T12:36:36;101255.00;;;32.00
13570;BMP180;6856;51.460;7.158;2022-08-07T12:39:15;101262.00;;;32.10
13570;BMP180;6856;51.460;7.158;2022-08-07T12:42:14;101267.00;;;32.20
13570;BMP180;6856;51.460;7.158;2022-08-07T12:45:05;101261.00;;;32.20
13570;BMP180;6856;51.460;7.158;2022-08-07T12:47:47;101265.00;;;32.30
13570;BMP180;6856;51.460;7.158;2022-08-07T12:50:34;101263.00;;;32.30
13570;BMP180;6856;51.460;7.158;2022-08-07T12:53:29;101241.00;;;32.30
13570;BMP180;6856;51.460;7.158;2022-08-07T12:56:32;101245.00;;;32.40
13570;BMP180;6856;51.460;7.158;2022-08-07T12:59:17;101253.00;;;32.40
13570;BMP180;6856;51.460;7.158;2022-08-07T13:02:09;101249.00;;;32.40
13570;BMP180;6856;51.460;7.158;2022-08-07T13:05:02;101256.00;;;32.40
13570;BMP180;6856;51.460;7.158;2022-08-07T13:08:15;101248.00;;;32.40
13570;BMP180;6856;51.460;7.158;2022-08-07T13:11:06;101253.00;;;32.40
13570;BMP180;6856;51.460;7.158;2022-08-07T13:14:02;101255.00;;;32.40
13570;BMP180;6856;51.460;7.158;2022-08-07T13:16:49;101239.00;;;32.40
13570;BMP180;6856;51.460;7.158;2022-08-07T13:19:38;101244.00;;;32.50
13570;BMP180;6856;51.460;7.158;2022-08-07T13:22:28;101238.00;;;32.50
13570;BMP180;6856;51.460;7.158;2022-08-07T13:25:11;101234.00;;;32.50
13570;BMP180;6856;51.460;7.158;2022-08-07T13:28:04;101230.00;;;32.50
13570;BMP180;6856;51.460;7.158;2022-08-07T13:31:03;101234.00;;;32.50
13570;BMP180;6856;51.460;7.158;2022-08-07T13:33:49;101232.00;;;32.50
13570;BMP180;6856;51.460;7.158;2022-08-07T13:36:54;101234.00;;;32.50
13570;BMP180;6856;51.460;7.158;2022-08-07T13:39:41;101215.00;;;32.50
13570;BMP180;6856;51.460;7.158;2022-08-07T13:42:37;101207.00;;;32.50
13570;BMP180;6856;51.460;7.158;2022-08-07T13:45:14;101208.00;;;32.50
13570;BMP180;6856;51.460;7.158;2022-08-07T13:48:10;101216.00;;;32.50
13570;BMP180;6856;51.460;7.158;2022-08-07T13:51:07;101215.00;;;32.40
13570;BMP180;6856;51.460;7.158;2022-08-07T13:54:05;101209.00;;;32.40
13570;BMP180;6856;51.460;7.158;2022-08-07T13:56:47;101204.00;;;32.40
13570;BMP180;6856;51.460;7.158;2022-08-07T13:59:31;101203.00;;;32.30
13570;BMP180;6856;51.460;7.158;2022-08-07T14:02:16;101209.00;;;32.30
13570;BMP180;6856;51.460;7.158;2022-08-07T14:05:08;101199.00;;;32.20
13570;BMP180;6856;51.460;7.158;2022-08-07T14:07:45;101185.00;;;32.20
13570;BMP180;6856;51.460;7.158;2022-08-07T14:10:34;101187.00;;;32.20
13570;BMP180;6856;51.460;7.158;2022-08-07T14:13:19;101191.00;;;32.20
13570;BMP180;6856;51.460;7.158;2022-08-07T14:16:11;101195.00;;;32.20
13570;BMP180;6856;51.460;7.158;2022-08-07T14:18:50;101192.00;;;32.20
13570;BMP180;6856;51.460;7.158;2022-08-07T14:21:34;101193.00;;;32.20
13570;BMP180;6856;51.460;7.158;2022-08-07T14:24:36;101189.00;;;32.20
13570;BMP180;6856;51.460;7.158;2022-08-07T14:27:14;101194.00;;;32.20
13570;BMP180;6856;51.460;7.158;2022-08-07T14:30:12;101196.00;;;32.20
13570;BMP180;6856;51.460;7.158;2022-08-07T14:33:07;101192.00;;;32.10
13570;BMP180;6856;51.460;7.158;2022-08-07T14:35:41;101188.00;;;32.10
13570;BMP180;6856;51.460;7.158;2022-08-07T14:38:36;101184.00;;;32.10
13570;BMP180;6856;51.460;7.158;2022-08-07T14:41:25;101185.00;;;32.10
13570;BMP180;6856;51.460;7.158;2022-08-07T14:44:22;101181.00;;;32.10
13570;BMP180;6856;51.460;7.158;2022-08-07T14:47:00;101171.00;;;32.10
13570;BMP180;6856;51.460;7.158;2022-08-07T14:49:50;101175.00;;;32.20
13570;BMP180;6856;51.460;7.158;2022-08-07T14:52:30;101174.00;;;32.10
13570;BMP180;6856;51.460;7.158;2022-08-07T14:55:07;101152.00;;;32.10
13570;BMP180;6856;51.460;7.158;2022-08-07T14:57:50;101173.00;;;32.10
13570;BMP180;6856;51.460;7.158;2022-08-07T15:00:33;101170.00;;;32.10
